createdAt,value
2018-07-15T00:02:00.992Z,22.10
2018-07-15T00:04:29.456Z,22.10
2018-07-15T00:06:57.932Z,22.10
2018-07-15T00:09:26.424Z,22.10
2018-07-15T00:11:54.888Z,22.00
2018-07-15T00:14:23.403Z,22.00
2018-07-15T00:16:51.872Z,22.00
2018-07-15T00:19:20.356Z,22.00
2018-07-15T00:21:48.836Z,22.00
2018-07-15T00:24:17.684Z,22.00
2018-07-15T00:26:46.188Z,21.90
2018-07-15T00:29:14.668Z,21.90
2018-07-15T00:31:43.183Z,21.90
2018-07-15T00:34:11.664Z,21.90
2018-07-15T00:36:40.141Z,21.80
2018-07-15T00:39:08.711Z,21.70
2018-07-15T00:41:37.209Z,21.70
2018-07-15T00:44:06.036Z,21.60
2018-07-15T00:49:02.640Z,21.60
2018-07-15T00:51:31.120Z,21.70
2018-07-15T00:53:59.589Z,21.70
2018-07-15T00:56:28.084Z,21.70
2018-07-15T00:58:56.537Z,21.60
2018-07-15T01:01:25.033Z,21.70
2018-07-15T01:03:53.501Z,21.70
2018-07-15T01:06:22.000Z,21.70
2018-07-15T01:08:50.477Z,21.70
2018-07-15T01:11:18.948Z,21.70
2018-07-15T01:13:47.444Z,21.60
2018-07-15T01:16:15.916Z,21.60
2018-07-15T01:18:44.417Z,21.60
2018-07-15T01:21:12.883Z,21.60
2018-07-15T01:23:41.368Z,21.60
2018-07-15T01:26:09.884Z,21.60
2018-07-15T01:28:38.352Z,21.60
2018-07-15T01:31:06.852Z,21.50
2018-07-15T01:33:35.304Z,21.50
2018-07-15T01:36:03.784Z,21.40
2018-07-15T01:38:32.247Z,21.40
2018-07-15T01:41:00.728Z,21.30
2018-07-15T01:43:29.209Z,21.30
2018-07-15T01:45:57.684Z,21.30
2018-07-15T01:48:26.164Z,21.30
2018-07-15T01:50:54.649Z,21.30
2018-07-15T01:53:23.106Z,21.20
2018-07-15T01:55:51.556Z,21.20
2018-07-15T01:58:20.037Z,21.20
2018-07-15T02:00:48.516Z,21.10
2018-07-15T02:03:17.008Z,21.10
2018-07-15T02:05:45.476Z,21.10
2018-07-15T02:08:13.928Z,21.00
2018-07-15T02:10:42.408Z,21.00
2018-07-15T02:13:10.956Z,21.00
2018-07-15T02:18:07.582Z,20.90
2018-07-15T02:20:36.027Z,20.80
2018-07-15T02:23:04.467Z,20.80
2018-07-15T02:28:01.035Z,20.70
2018-07-15T02:30:29.504Z,20.70
2018-07-15T02:35:26.084Z,20.70
2018-07-15T02:37:54.532Z,20.60
2018-07-15T02:42:51.103Z,20.50
2018-07-15T02:45:19.564Z,20.50
2018-07-15T02:47:48.025Z,20.40
2018-07-15T02:50:16.461Z,20.30
2018-07-15T02:52:44.908Z,20.30
2018-07-15T02:55:13.349Z,20.30
2018-07-15T02:57:41.809Z,20.30
2018-07-15T03:00:10.292Z,20.20
2018-07-15T03:02:38.778Z,20.20
2018-07-15T03:05:07.234Z,20.10
2018-07-15T03:07:35.684Z,20.20
2018-07-15T03:10:04.169Z,20.10
2018-07-15T03:12:32.615Z,20.10
2018-07-15T03:15:01.044Z,20.00
2018-07-15T03:19:57.616Z,20.00
2018-07-15T03:22:26.044Z,19.80
2018-07-15T03:24:54.498Z,19.80
2018-07-15T03:27:22.940Z,19.80
2018-07-15T03:29:51.395Z,19.80
2018-07-15T03:32:19.823Z,19.80
2018-07-15T03:34:48.244Z,19.80
2018-07-15T03:37:16.693Z,19.80
2018-07-15T03:39:45.143Z,19.80
2018-07-15T03:42:13.595Z,19.70
2018-07-15T03:44:42.064Z,19.70
2018-07-15T03:47:10.483Z,19.70
2018-07-15T03:52:07.055Z,19.60
2018-07-15T03:54:35.499Z,19.60
2018-07-15T03:57:03.971Z,19.60
2018-07-15T03:59:32.396Z,19.60
2018-07-15T04:02:00.963Z,19.60
2018-07-15T04:06:57.539Z,19.60
2018-07-15T04:09:25.959Z,19.60
2018-07-15T04:11:54.387Z,19.60
2018-07-15T04:14:22.831Z,19.60
2018-07-15T04:16:51.324Z,19.60
2018-07-15T04:21:47.897Z,19.60
2018-07-15T04:26:44.477Z,19.60
2018-07-15T04:29:12.924Z,19.60
2018-07-15T04:34:09.483Z,19.60
2018-07-15T04:39:07.552Z,19.60
2018-07-15T04:41:35.996Z,19.50
2018-07-15T04:44:04.699Z,19.50
2018-07-15T04:46:33.200Z,19.60
2018-07-15T04:49:01.651Z,19.60
2018-07-15T04:51:30.087Z,19.60
2018-07-15T04:56:26.667Z,19.60
2018-07-15T04:58:55.112Z,19.70
2018-07-15T05:01:23.575Z,19.70
2018-07-15T05:03:52.036Z,19.70
2018-07-15T05:06:20.500Z,19.70
2018-07-15T05:08:48.928Z,19.80
2018-07-15T05:11:17.433Z,19.80
2018-07-15T05:13:45.835Z,19.80
2018-07-15T05:16:14.309Z,19.80
2018-07-15T05:18:42.785Z,19.90
2018-07-15T05:21:11.208Z,19.90
2018-07-15T05:23:39.659Z,19.90
2018-07-15T05:26:08.092Z,19.90
2018-07-15T05:28:36.549Z,19.90
2018-07-15T05:31:04.995Z,19.90
2018-07-15T05:33:33.447Z,20.00
2018-07-15T05:38:30.307Z,20.00
2018-07-15T05:43:26.856Z,20.20
2018-07-15T05:48:23.416Z,20.20
2018-07-15T05:50:51.839Z,20.30
2018-07-15T05:53:20.296Z,20.40
2018-07-15T05:55:48.727Z,20.40
2018-07-15T05:58:17.184Z,20.50
2018-07-15T06:00:45.624Z,20.50
2018-07-15T06:03:14.304Z,20.50
2018-07-15T06:08:10.863Z,20.60
2018-07-15T06:15:35.580Z,20.80
2018-07-15T06:18:04.098Z,20.80
2018-07-15T06:20:32.542Z,20.90
2018-07-15T06:23:01.007Z,20.90
2018-07-15T06:25:29.475Z,21.00
2018-07-15T06:27:57.936Z,21.10
2018-07-15T06:30:26.365Z,21.10
2018-07-15T06:32:54.792Z,21.20
2018-07-15T06:35:23.236Z,21.30
2018-07-15T06:37:51.700Z,21.40
2018-07-15T06:40:20.167Z,21.40
2018-07-15T06:42:48.604Z,21.50
2018-07-15T06:45:17.035Z,21.60
2018-07-15T06:47:45.488Z,21.70
2018-07-15T06:50:14.000Z,21.80
2018-07-15T06:52:42.500Z,21.90
2018-07-15T06:55:10.935Z,22.00
2018-07-15T06:57:39.355Z,22.00
2018-07-15T07:02:35.960Z,22.30
2018-07-15T07:05:04.491Z,22.40
2018-07-15T07:07:32.974Z,22.50
2018-07-15T07:10:01.412Z,22.60
2018-07-15T07:12:29.862Z,22.70
2018-07-15T07:14:58.288Z,22.80
2018-07-15T07:17:26.723Z,22.80
2018-07-15T07:19:55.148Z,22.90
2018-07-15T07:22:23.612Z,23.00
2018-07-15T07:24:52.058Z,23.10
2018-07-15T07:27:20.482Z,23.10
2018-07-15T07:29:48.947Z,23.20
2018-07-15T07:32:17.371Z,23.30
2018-07-15T07:34:45.827Z,23.40
2018-07-15T07:37:14.248Z,23.50
2018-07-15T07:39:42.693Z,23.50
2018-07-15T07:42:11.127Z,23.60
2018-07-15T07:44:39.576Z,23.60
2018-07-15T07:47:08.004Z,23.70
2018-07-15T07:49:36.447Z,23.60
2018-07-15T07:54:33.011Z,23.80
2018-07-15T07:57:01.433Z,23.90
2018-07-15T07:59:29.888Z,24.00
2018-07-15T08:01:58.368Z,24.10
2018-07-15T08:04:26.787Z,24.10
2018-07-15T08:06:55.247Z,24.20
2018-07-15T08:09:23.778Z,24.30
2018-07-15T08:11:52.203Z,24.30
2018-07-15T08:14:20.647Z,24.30
2018-07-15T08:16:49.324Z,24.30
2018-07-15T08:19:17.804Z,24.40
2018-07-15T08:21:46.249Z,24.40
2018-07-15T08:24:14.691Z,24.50
2018-07-15T08:26:43.147Z,24.60
2018-07-15T08:29:11.564Z,24.60
2018-07-15T08:31:40.056Z,24.70
2018-07-15T08:34:08.487Z,24.80
2018-07-15T08:36:36.930Z,24.90
2018-07-15T08:39:06.751Z,25.00
2018-07-15T08:41:35.600Z,25.10
2018-07-15T08:44:04.079Z,25.10
2018-07-15T08:46:32.500Z,25.20
2018-07-15T08:49:00.948Z,25.30
2018-07-15T08:51:29.391Z,25.30
2018-07-15T08:53:57.848Z,25.30
2018-07-15T08:56:26.292Z,25.40
2018-07-15T08:58:54.731Z,25.50
2018-07-15T09:01:23.180Z,25.60
2018-07-15T09:03:51.631Z,25.70
2018-07-15T09:06:20.107Z,25.80
2018-07-15T09:08:48.536Z,25.80
2018-07-15T09:11:16.976Z,25.90
2018-07-15T09:13:45.419Z,26.00
2018-07-15T09:16:13.870Z,26.10
2018-07-15T09:18:42.328Z,26.20
2018-07-15T09:21:10.789Z,26.30
2018-07-15T09:23:39.219Z,26.30
2018-07-15T09:26:07.708Z,26.40
2018-07-15T09:28:36.155Z,26.50
2018-07-15T09:31:04.620Z,26.70
2018-07-15T09:33:33.055Z,26.70
2018-07-15T09:36:01.512Z,26.80
2018-07-15T09:38:29.940Z,26.90
2018-07-15T09:40:58.404Z,27.00
2018-07-15T09:43:26.852Z,27.00
2018-07-15T09:45:55.281Z,27.10
2018-07-15T09:50:51.835Z,27.30
2018-07-15T09:53:20.339Z,27.40
2018-07-15T09:55:48.831Z,27.60
2018-07-15T09:58:17.307Z,27.70
2018-07-15T10:00:51.144Z,27.90
2018-07-15T10:03:19.569Z,28.10
2018-07-15T10:05:48.268Z,28.30
2018-07-15T10:08:16.697Z,28.40
2018-07-15T10:10:45.156Z,28.60
2018-07-15T10:13:13.712Z,28.70
2018-07-15T10:15:42.179Z,28.90
2018-07-15T10:20:38.736Z,29.30
2018-07-15T10:25:35.348Z,29.60
2018-07-15T10:28:03.793Z,29.90
2018-07-15T10:30:32.245Z,30.10
2018-07-15T10:35:29.015Z,30.60
2018-07-15T10:40:25.580Z,31.20
2018-07-15T10:42:54.024Z,31.40
2018-07-15T10:45:22.488Z,31.50
2018-07-15T10:47:50.948Z,31.60
2018-07-15T10:50:19.412Z,31.50
2018-07-15T10:52:47.878Z,31.60
2018-07-15T10:55:16.322Z,32.00
2018-07-15T10:57:44.748Z,32.20
2018-07-15T11:00:13.225Z,32.40
2018-07-15T11:02:41.670Z,32.50
2018-07-15T11:05:10.139Z,32.60
2018-07-15T11:07:38.592Z,32.70
2018-07-15T11:10:07.053Z,32.70
2018-07-15T11:12:35.495Z,32.80
2018-07-15T11:15:03.968Z,32.80
2018-07-15T11:17:32.446Z,32.90
2018-07-15T11:20:00.904Z,32.90
2018-07-15T11:22:29.364Z,32.70
2018-07-15T11:24:57.801Z,32.60
2018-07-15T11:27:26.223Z,32.70
2018-07-15T11:29:54.672Z,32.80
2018-07-15T11:34:51.220Z,33.00
2018-07-15T11:37:19.703Z,33.10
2018-07-15T11:39:48.122Z,33.00
2018-07-15T11:42:16.667Z,32.70
2018-07-15T11:44:45.119Z,32.70
2018-07-15T11:47:13.636Z,33.00
2018-07-15T11:49:42.036Z,32.80
2018-07-15T11:52:10.473Z,33.20
2018-07-15T11:54:39.021Z,33.30
2018-07-15T11:57:07.403Z,33.90
2018-07-15T11:59:35.851Z,34.80
2018-07-15T12:02:04.328Z,35.10
2018-07-15T12:07:00.884Z,36.40
2018-07-15T12:09:29.452Z,37.00
2018-07-15T12:11:57.916Z,37.70
2018-07-15T12:14:26.411Z,38.20
2018-07-15T12:16:54.996Z,38.50
2018-07-15T12:19:23.496Z,39.00
2018-07-15T12:21:51.952Z,39.30
2018-07-15T12:24:20.404Z,39.50
2018-07-15T12:26:48.844Z,39.90
2018-07-15T12:29:17.295Z,40.10
2018-07-15T12:31:45.735Z,39.60
2018-07-15T12:34:14.188Z,39.50
2018-07-15T12:36:42.653Z,38.80
2018-07-15T12:41:39.223Z,39.10
2018-07-15T12:44:07.649Z,38.00
2018-07-15T12:46:36.084Z,37.20
2018-07-15T12:49:04.572Z,35.80
2018-07-15T12:51:33.022Z,34.80
2018-07-15T12:54:01.476Z,35.00
2018-07-15T12:56:29.915Z,35.70
2018-07-15T12:58:58.463Z,37.70
2018-07-15T13:01:26.911Z,38.90
2018-07-15T13:03:55.352Z,39.30
2018-07-15T13:06:23.833Z,39.70
2018-07-15T13:08:52.279Z,40.20
2018-07-15T13:11:20.939Z,40.50
2018-07-15T13:13:49.364Z,40.50
2018-07-15T13:18:45.957Z,40.30
2018-07-15T13:21:14.395Z,38.90
2018-07-15T13:26:10.955Z,38.00
2018-07-15T13:31:07.515Z,36.20
2018-07-15T13:33:35.963Z,36.40
2018-07-15T13:36:04.459Z,37.30
2018-07-15T13:38:32.899Z,38.10
2018-07-15T13:41:01.361Z,38.90
2018-07-15T13:43:29.915Z,39.00
2018-07-15T13:48:26.492Z,39.40
2018-07-15T13:50:55.027Z,39.10
2018-07-15T13:53:23.423Z,38.40
2018-07-15T13:58:20.022Z,36.70
2018-07-15T14:00:48.465Z,35.90
2018-07-15T14:03:16.911Z,35.00
2018-07-15T14:05:45.347Z,34.30
2018-07-15T14:08:13.791Z,33.80
2018-07-15T14:10:42.257Z,33.60
2018-07-15T14:13:10.700Z,33.30
2018-07-15T14:15:39.154Z,33.10
2018-07-15T14:18:07.588Z,33.00
2018-07-15T14:20:36.037Z,32.70
2018-07-15T14:23:04.473Z,32.70
2018-07-15T14:25:32.988Z,32.50
2018-07-15T14:28:01.509Z,32.30
2018-07-15T14:30:29.895Z,32.10
2018-07-15T14:32:58.356Z,32.00
2018-07-15T14:35:26.785Z,31.60
2018-07-15T14:37:55.274Z,31.40
2018-07-15T14:40:23.683Z,31.20
2018-07-15T14:42:52.124Z,31.00
2018-07-15T14:45:20.572Z,30.60
2018-07-15T14:47:49.016Z,30.20
2018-07-15T14:52:45.602Z,29.30
2018-07-15T14:55:14.068Z,29.00
2018-07-15T14:57:42.503Z,28.70
2018-07-15T15:00:10.935Z,28.40
2018-07-15T15:02:39.372Z,28.10
2018-07-15T15:05:08.060Z,27.90
2018-07-15T15:07:36.520Z,27.70
2018-07-15T15:10:04.991Z,27.50
2018-07-15T15:12:33.509Z,27.30
2018-07-15T15:15:01.959Z,27.10
2018-07-15T15:17:30.392Z,27.00
2018-07-15T15:22:26.959Z,26.90
2018-07-15T15:24:55.408Z,26.70
2018-07-15T15:27:23.829Z,26.50
2018-07-15T15:29:52.252Z,26.30
2018-07-15T15:32:20.704Z,26.10
2018-07-15T15:34:49.152Z,26.00
2018-07-15T15:37:17.612Z,25.80
2018-07-15T15:39:46.040Z,25.50
2018-07-15T15:42:14.524Z,25.40
2018-07-15T15:44:43.050Z,25.30
2018-07-15T15:47:11.467Z,25.20
2018-07-15T15:49:39.911Z,25.20
2018-07-15T15:52:08.387Z,25.00
2018-07-15T15:54:36.863Z,25.00
2018-07-15T15:57:05.563Z,24.90
2018-07-15T15:59:34.132Z,24.70
2018-07-15T16:02:02.655Z,24.50
2018-07-15T16:04:31.092Z,24.50
2018-07-15T16:06:59.568Z,24.40
2018-07-15T16:09:27.995Z,24.20
2018-07-15T16:14:24.636Z,24.10
2018-07-15T16:16:53.076Z,24.10
2018-07-15T16:19:21.528Z,24.00
2018-07-15T16:21:49.992Z,24.00
2018-07-15T16:24:18.642Z,24.00
2018-07-15T16:26:47.083Z,24.10
2018-07-15T16:29:15.515Z,24.10
2018-07-15T16:31:43.971Z,24.00
2018-07-15T16:34:12.486Z,24.00
2018-07-15T16:36:40.872Z,23.90
2018-07-15T16:41:37.808Z,23.80
2018-07-15T16:44:06.307Z,23.70
2018-07-15T16:46:34.783Z,23.70
2018-07-15T16:49:03.236Z,23.70
2018-07-15T16:51:31.684Z,23.70
2018-07-15T16:54:00.115Z,23.80
2018-07-15T16:56:28.568Z,23.90
2018-07-15T16:58:56.991Z,23.90
2018-07-15T17:01:25.492Z,24.00
2018-07-15T17:06:22.884Z,24.00
2018-07-15T17:08:51.319Z,24.00
2018-07-15T17:11:19.744Z,24.00
2018-07-15T17:13:48.263Z,23.90
2018-07-15T17:16:16.687Z,24.00
2018-07-15T17:21:13.272Z,24.10
2018-07-15T17:23:41.724Z,24.20
2018-07-15T17:26:10.168Z,24.30
2018-07-15T17:28:38.598Z,24.30
2018-07-15T17:31:07.307Z,24.40
2018-07-15T17:33:35.789Z,24.50
2018-07-15T17:36:04.252Z,24.50
2018-07-15T17:38:32.683Z,24.50
2018-07-15T17:41:01.103Z,24.50
2018-07-15T17:43:29.555Z,24.40
2018-07-15T17:45:57.972Z,24.40
2018-07-15T17:48:26.420Z,24.30
2018-07-15T17:50:54.855Z,24.20
2018-07-15T17:53:23.320Z,24.10
2018-07-15T17:55:51.768Z,24.00
2018-07-15T17:58:20.216Z,23.90
2018-07-15T18:00:48.684Z,23.80
2018-07-15T18:03:17.149Z,23.70
2018-07-15T18:05:45.583Z,23.70
2018-07-15T18:08:14.032Z,23.60
2018-07-15T18:10:42.513Z,23.50
2018-07-15T18:13:10.936Z,23.50
2018-07-15T18:18:07.504Z,23.40
2018-07-15T18:20:36.017Z,23.40
2018-07-15T18:23:04.447Z,23.40
2018-07-15T18:25:32.904Z,23.40
2018-07-15T18:28:01.336Z,23.40
2018-07-15T18:30:29.793Z,23.40
2018-07-15T18:32:58.215Z,23.30
2018-07-15T18:35:26.669Z,23.20
2018-07-15T18:37:55.112Z,23.20
2018-07-15T18:40:23.568Z,23.20
2018-07-15T18:42:52.037Z,23.10
2018-07-15T18:45:20.499Z,23.10
2018-07-15T18:47:48.951Z,23.10
2018-07-15T18:50:17.408Z,23.10
2018-07-15T18:52:45.852Z,23.10
2018-07-15T18:55:14.308Z,23.00
2018-07-15T18:57:42.739Z,22.90
2018-07-15T19:00:11.248Z,22.90
2018-07-15T19:02:39.672Z,22.90
2018-07-15T19:05:08.548Z,22.90
2018-07-15T19:10:05.285Z,22.90
2018-07-15T19:12:33.795Z,22.80
2018-07-15T19:15:02.579Z,22.80
2018-07-15T19:17:31.024Z,22.80
2018-07-15T19:19:59.479Z,22.70
2018-07-15T19:22:27.904Z,22.80
2018-07-15T19:29:53.092Z,22.80
2018-07-15T19:32:21.581Z,22.80
2018-07-15T19:34:50.028Z,22.80
2018-07-15T19:37:18.603Z,22.90
2018-07-15T19:42:15.212Z,22.90
2018-07-15T19:44:43.640Z,22.90
2018-07-15T19:49:40.236Z,23.00
2018-07-15T19:52:08.780Z,23.00
2018-07-15T19:57:05.364Z,22.90
2018-07-15T19:59:33.792Z,22.90
2018-07-15T20:02:02.268Z,22.90
2018-07-15T20:04:30.702Z,22.90
2018-07-15T20:06:59.156Z,22.90
2018-07-15T20:11:55.732Z,22.80
2018-07-15T20:14:24.183Z,22.80
2018-07-15T20:16:52.660Z,22.70
2018-07-15T20:19:21.106Z,22.70
2018-07-15T20:21:49.572Z,22.70
2018-07-15T20:24:18.052Z,22.60
2018-07-15T20:26:46.568Z,22.50
2018-07-15T20:29:14.995Z,22.50
2018-07-15T20:31:43.481Z,22.40
2018-07-15T20:34:11.948Z,22.40
2018-07-15T20:36:40.360Z,22.40
2018-07-15T20:39:08.808Z,22.40
2018-07-15T20:41:37.236Z,22.30
2018-07-15T20:44:05.715Z,22.30
2018-07-15T20:46:34.228Z,22.30
2018-07-15T20:49:02.619Z,22.30
2018-07-15T20:51:31.060Z,22.30
2018-07-15T20:53:59.512Z,22.30
2018-07-15T20:56:27.936Z,22.30
2018-07-15T20:58:56.376Z,22.20
2018-07-15T21:01:24.811Z,22.10
2018-07-15T21:03:53.248Z,22.00
2018-07-15T21:06:21.679Z,22.00
2018-07-15T21:08:50.132Z,22.00
2018-07-15T21:11:18.608Z,22.00
2018-07-15T21:13:47.035Z,22.00
2018-07-15T21:16:15.468Z,22.00
2018-07-15T21:18:43.912Z,22.00
2018-07-15T21:21:12.344Z,21.90
2018-07-15T21:23:40.840Z,21.90
2018-07-15T21:26:09.264Z,21.90
2018-07-15T21:28:37.740Z,21.80
2018-07-15T21:31:06.514Z,21.60
2018-07-15T21:33:34.958Z,21.50
2018-07-15T21:36:03.407Z,21.40
2018-07-15T21:38:31.856Z,21.30
2018-07-15T21:41:00.295Z,21.20
2018-07-15T21:43:28.735Z,21.10
2018-07-15T21:45:57.164Z,21.00
2018-07-15T21:48:25.629Z,20.90
2018-07-15T21:50:54.063Z,20.80
2018-07-15T21:53:22.608Z,20.70
2018-07-15T21:55:51.027Z,20.70
2018-07-15T21:58:19.476Z,20.60
2018-07-15T22:00:47.919Z,20.60
2018-07-15T22:03:16.384Z,20.50
2018-07-15T22:05:44.804Z,20.40
2018-07-15T22:08:24.469Z,20.40
2018-07-15T22:13:21.027Z,20.40
2018-07-15T22:15:49.451Z,20.30
2018-07-15T22:18:17.883Z,20.40
2018-07-15T22:23:14.496Z,20.40
2018-07-15T22:25:43.008Z,20.40
2018-07-15T22:28:11.444Z,20.40
2018-07-15T22:30:39.933Z,20.40
2018-07-15T22:33:08.365Z,20.30
2018-07-15T22:38:04.979Z,20.50
2018-07-15T22:40:33.458Z,20.50
2018-07-15T22:43:01.884Z,20.50
2018-07-15T22:47:58.461Z,20.40
2018-07-15T22:50:26.924Z,20.40
2018-07-15T22:55:23.490Z,20.50
2018-07-15T22:57:51.919Z,20.40
2018-07-15T23:00:20.392Z,20.40
2018-07-15T23:02:48.824Z,20.40
2018-07-15T23:05:42.007Z,20.40
2018-07-15T23:08:10.873Z,20.50
2018-07-15T23:10:39.344Z,20.50
2018-07-15T23:13:08.734Z,20.50
2018-07-15T23:15:37.645Z,20.50
2018-07-15T23:20:35.023Z,20.50
2018-07-15T23:23:04.525Z,20.40
2018-07-15T23:25:33.316Z,20.50
2018-07-15T23:28:02.383Z,20.50
2018-07-15T23:30:31.708Z,20.50
2018-07-15T23:40:25.327Z,20.30
2018-07-15T23:45:23.833Z,20.40
2018-07-15T23:47:52.595Z,20.50
2018-07-15T23:50:21.039Z,20.50
2018-07-15T23:52:49.500Z,20.50
2018-07-15T23:55:18.063Z,20.50
2018-07-15T23:57:46.540Z,20.50
